Time;durP1;ratioP1;P1;durP2;ratioP2;P2;SDS_P1;SDS_P2;PMS_P1;PMS_P2;Temp;Humidity;BMP_temperature;BMP_pressure;BME280_temperature;BME280_humidity;BME280_pressure;Samples;Min_cycle;Max_cycle;Signal;HPM_P1;HPM_P2
2023/10/19 00:02:07;;;;;;;1.50;1.20;;;11.80;98.20;;;;;;4999018;28;20858;-76
2023/10/19 00:04:35;;;;;;;1.50;1.10;;;11.80;98.20;;;;;;5011225;28;20500;-76
2023/10/19 00:07:04;;;;;;;1.50;1.10;;;11.80;98.20;;;;;;5000659;28;20555;-75
2023/10/19 00:09:36;;;;;;;1.53;1.10;;;11.80;98.20;;;;;;5007375;28;20464;-75
2023/10/19 00:12:06;;;;;;;1.87;1.77;;;11.80;98.20;;;;;;4997640;28;20534;-76
2023/10/19 00:14:32;;;;;;;1.50;1.20;;;11.80;98.20;;;;;;5011012;28;20478;-76
2023/10/19 00:17:05;;;;;;;1.60;1.20;;;11.90;98.20;;;;;;4999484;28;20503;-76
2023/10/19 00:19:37;;;;;;;1.50;1.00;;;11.90;98.20;;;;;;5001525;28;20536;-76
2023/10/19 00:22:08;;;;;;;1.50;1.10;;;11.90;98.20;;;;;;5001283;28;20553;-76
2023/10/19 00:24:34;;;;;;;1.50;1.10;;;12.00;98.20;;;;;;5011541;28;20491;-76
2023/10/19 00:27:06;;;;;;;1.50;1.10;;;12.00;98.20;;;;;;4995284;28;20475;-75
2023/10/19 00:29:40;;;;;;;1.50;1.00;;;12.00;98.20;;;;;;5007182;28;20466;-75
2023/10/19 00:32:14;;;;;;;1.50;1.10;;;12.00;98.20;;;;;;5000185;28;20487;-75
2023/10/19 00:34:41;;;;;;;1.50;1.10;;;12.00;98.20;;;;;;5007758;28;20476;-76
2023/10/19 00:37:10;;;;;;;1.50;1.10;;;12.00;98.20;;;;;;4993543;28;20483;-76
2023/10/19 00:39:43;;;;;;;1.50;1.00;;;12.10;98.20;;;;;;5008365;28;20814;-75
2023/10/19 00:42:11;;;;;;;1.50;1.00;;;12.10;98.20;;;;;;4998037;28;20559;-75
2023/10/19 00:44:42;;;;;;;1.50;1.10;;;12.10;98.20;;;;;;5008901;28;20869;-76
2023/10/19 00:47:12;;;;;;;1.50;1.03;;;12.10;98.20;;;;;;4998672;28;20491;-76
2023/10/19 00:49:41;;;;;;;1.50;1.00;;;12.10;98.20;;;;;;5010765;28;20459;-76
2023/10/19 00:52:12;;;;;;;1.50;1.10;;;12.20;98.20;;;;;;4999663;28;20499;-75
2023/10/19 00:54:47;;;;;;;1.50;1.10;;;12.20;98.20;;;;;;5004404;28;20479;-75
2023/10/19 00:57:14;;;;;;;1.50;1.10;;;12.20;98.20;;;;;;4999077;28;21014;-76
2023/10/19 00:59:47;;;;;;;1.80;1.40;;;12.20;98.20;;;;;;5001851;28;21231;-75
2023/10/19 01:02:18;;;;;;;1.50;1.00;;;12.30;98.20;;;;;;5000359;28;20478;-76
2023/10/19 01:04:50;;;;;;;1.50;1.10;;;12.30;98.20;;;;;;4999186;28;21086;-75
2023/10/19 01:07:22;;;;;;;1.50;1.00;;;12.30;98.20;;;;;;5006089;28;20492;-76
2023/10/19 01:09:52;;;;;;;1.50;1.00;;;12.30;98.20;;;;;;5012145;28;20468;-76
2023/10/19 01:12:32;;;;;;;1.50;1.10;;;12.30;98.20;;;;;;5015392;28;20482;-76
2023/10/19 01:15:12;;;;;;;1.50;1.00;;;12.40;98.20;;;;;;5012355;28;21248;-79
2023/10/19 01:17:40;;;;;;;1.50;1.10;;;12.40;98.20;;;;;;5010305;28;20493;-78
2023/10/19 01:20:19;;;;;;;1.50;1.10;;;12.40;98.20;;;;;;5013203;28;20456;-80
2023/10/19 01:23:06;;;;;;;3.60;3.30;;;12.40;98.20;;;;;;5017393;28;20574;-79
2023/10/19 01:25:36;;;;;;;1.50;1.00;;;12.50;98.20;;;;;;5015029;28;20472;-79
2023/10/19 01:28:08;;;;;;;1.50;1.00;;;12.50;98.20;;;;;;5011111;28;20475;-78
2023/10/19 01:30:36;;;;;;;1.50;1.00;;;12.50;98.20;;;;;;5016416;28;20459;-78
2023/10/19 01:33:04;;;;;;;1.50;1.10;;;12.50;98.20;;;;;;5014983;28;20493;-77
2023/10/19 01:36:10;;;;;;;1.60;1.30;;;12.50;98.20;;;;;;5012001;28;20586;-75
2023/10/19 01:38:18;;;;;;;3.10;2.13;;;12.60;98.20;;;;;;5001745;28;20500;-78
2023/10/19 01:40:48;;;;;;;1.60;1.37;;;12.60;98.20;;;;;;5015842;28;20558;-78
2023/10/19 01:43:20;;;;;;;1.60;1.20;;;12.60;98.20;;;;;;5004051;28;20487;-78
2023/10/19 01:45:47;;;;;;;1.50;1.00;;;12.60;98.20;;;;;;5008106;28;20533;-77
2023/10/19 01:48:13;;;;;;;1.50;1.10;;;12.60;98.20;;;;;;5020185;28;20535;-77
2023/10/19 01:50:40;;;;;;;1.53;1.10;;;12.60;98.20;;;;;;5014461;28;21019;-77
2023/10/19 01:53:15;;;;;;;1.50;1.00;;;12.70;98.20;;;;;;5014309;28;20229;-78
2023/10/19 01:55:43;;;;;;;1.50;1.00;;;12.70;98.20;;;;;;5014001;28;20988;-79
2023/10/19 01:58:09;;;;;;;1.50;1.10;;;12.70;98.20;;;;;;5015270;28;20490;-78
2023/10/19 02:00:37;;;;;;;1.50;1.00;;;12.80;98.20;;;;;;5015544;28;20498;-77
2023/10/19 02:03:07;;;;;;;1.50;1.03;;;12.80;98.20;;;;;;5015011;28;20545;-77
2023/10/19 02:05:41;;;;;;;1.60;1.20;;;12.80;98.20;;;;;;5016604;28;20468;-78
2023/10/19 02:08:07;;;;;;;1.50;1.10;;;12.90;98.20;;;;;;5012681;28;20483;-78
2023/10/19 02:10:35;;;;;;;1.70;1.40;;;12.90;98.20;;;;;;5014093;28;20478;-77
2023/10/19 02:13:06;;;;;;;1.50;1.00;;;12.90;98.20;;;;;;5010573;28;20654;-78
2023/10/19 02:15:35;;;;;;;1.50;1.00;;;12.90;98.20;;;;;;5007330;28;20486;-77
2023/10/19 02:18:02;;;;;;;1.50;1.07;;;12.90;98.20;;;;;;5009657;28;20536;-78
2023/10/19 02:20:29;;;;;;;1.50;1.10;;;13.00;98.20;;;;;;5012949;28;20474;-78
2023/10/19 02:22:57;;;;;;;1.70;1.50;;;13.00;98.20;;;;;;5015267;28;20544;-77
2023/10/19 02:25:28;;;;;;;1.50;1.00;;;13.00;98.20;;;;;;5008956;28;20617;-78
2023/10/19 02:27:53;;;;;;;1.50;1.00;;;13.00;98.20;;;;;;5004892;28;20559;-77
2023/10/19 02:30:24;;;;;;;1.50;1.00;;;13.00;98.20;;;;;;5008288;28;20602;-78
2023/10/19 02:32:50;;;;;;;1.50;1.00;;;13.00;98.20;;;;;;5014056;28;20319;-77
2023/10/19 02:35:18;;;;;;;1.50;1.00;;;13.00;98.20;;;;;;5009620;28;20456;-76
2023/10/19 02:37:44;;;;;;;1.50;1.10;;;13.00;98.20;;;;;;5013893;28;20483;-76
2023/10/19 02:40:19;;;;;;;1.50;1.00;;;13.00;98.20;;;;;;5010614;28;20543;-77
2023/10/19 02:42:47;;;;;;;1.50;1.00;;;13.00;98.20;;;;;;5003385;28;20243;-78
2023/10/19 02:45:15;;;;;;;1.50;1.00;;;13.00;98.20;;;;;;5016570;28;20484;-77
2023/10/19 02:47:45;;;;;;;1.77;1.53;;;13.00;98.20;;;;;;5011904;28;20479;-78
2023/10/19 02:50:16;;;;;;;1.50;1.00;;;13.00;98.20;;;;;;5012579;28;20483;-78
2023/10/19 02:52:43;;;;;;;1.50;1.00;;;13.00;98.20;;;;;;5017782;28;20500;-77
2023/10/19 02:55:09;;;;;;;1.50;1.00;;;13.00;98.20;;;;;;5013753;28;20464;-76
2023/10/19 02:57:37;;;;;;;1.50;1.00;;;13.00;98.20;;;;;;5014335;28;20493;-77
2023/10/19 03:00:10;;;;;;;1.50;1.10;;;13.00;98.20;;;;;;5007395;28;20550;-76
2023/10/19 03:02:38;;;;;;;1.50;1.00;;;13.00;98.20;;;;;;5016267;28;20565;-78
2023/10/19 03:05:14;;;;;;;1.50;1.00;;;13.10;98.20;;;;;;5009237;28;20579;-77
2023/10/19 03:07:40;;;;;;;1.57;1.20;;;13.10;98.20;;;;;;5002510;28;20475;-78
2023/10/19 03:10:10;;;;;;;1.50;0.90;;;13.10;98.20;;;;;;5006615;28;20460;-77
2023/10/19 03:12:36;;;;;;;1.50;1.10;;;13.10;98.20;;;;;;5003638;28;20487;-77
2023/10/19 03:15:05;;;;;;;1.50;1.10;;;13.10;98.20;;;;;;5008435;28;20468;-78
2023/10/19 03:17:31;;;;;;;1.80;1.40;;;13.10;98.20;;;;;;5003719;28;20234;-76
2023/10/19 03:19:58;;;;;;;1.50;1.10;;;13.10;98.20;;;;;;5007510;28;20996;-76
2023/10/19 03:22:27;;;;;;;1.50;1.00;;;13.10;98.20;;;;;;5002248;28;20477;-77
2023/10/19 03:25:14;;;;;;;1.50;1.03;;;13.10;98.20;;;;;;5011245;28;20492;-77
2023/10/19 03:27:44;;;;;;;1.50;1.00;;;13.10;98.20;;;;;;4999492;28;20483;-77
2023/10/19 03:30:14;;;;;;;1.50;1.00;;;13.10;98.20;;;;;;5006369;28;20951;-77
2023/10/19 03:32:41;;;;;;;1.50;1.00;;;13.10;98.20;;;;;;5004571;28;20822;-76
2023/10/19 03:35:08;;;;;;;1.50;1.00;;;13.10;98.20;;;;;;5004477;28;20457;-78
2023/10/19 03:37:36;;;;;;;1.50;1.10;;;13.10;98.20;;;;;;5003231;28;20869;-77
2023/10/19 03:40:07;;;;;;;1.50;0.97;;;13.10;98.20;;;;;;5008946;28;20456;-77
2023/10/19 03:42:40;;;;;;;1.50;1.00;;;13.10;98.20;;;;;;5001640;28;20498;-77
2023/10/19 03:45:12;;;;;;;1.50;1.00;;;13.10;98.20;;;;;;5006944;28;20924;-77
2023/10/19 03:47:39;;;;;;;1.50;1.00;;;13.20;98.20;;;;;;5002517;28;20496;-78
2023/10/19 03:50:14;;;;;;;1.50;1.10;;;13.20;98.20;;;;;;5003031;28;20543;-77
2023/10/19 03:52:42;;;;;;;1.50;1.10;;;13.20;98.20;;;;;;4999644;28;20578;-77
2023/10/19 03:55:15;;;;;;;1.50;1.00;;;13.20;98.20;;;;;;5006244;28;20551;-77
2023/10/19 03:57:46;;;;;;;1.50;1.00;;;13.20;98.20;;;;;;5002746;28;20566;-77
2023/10/19 04:00:16;;;;;;;1.50;1.00;;;13.30;98.20;;;;;;5004239;28;20570;-77
2023/10/19 04:02:43;;;;;;;1.60;1.40;;;13.30;98.20;;;;;;4999435;28;20530;-77
2023/10/19 04:05:14;;;;;;;1.53;1.10;;;13.30;98.20;;;;;;5004967;28;21064;-77
2023/10/19 04:07:43;;;;;;;1.50;1.00;;;13.30;98.20;;;;;;5005480;28;20487;-77
2023/10/19 04:10:29;;;;;;;1.50;1.00;;;13.30;98.20;;;;;;5003517;28;20460;-77
2023/10/19 04:12:57;;;;;;;1.60;1.27;;;13.30;98.20;;;;;;5003479;28;20483;-78
2023/10/19 04:15:26;;;;;;;1.50;1.00;;;13.30;98.20;;;;;;5004208;28;21149;-78
2023/10/19 04:17:54;;;;;;;1.50;1.00;;;13.30;98.20;;;;;;5003537;28;20480;-78
2023/10/19 04:20:29;;;;;;;1.50;1.00;;;13.30;98.20;;;;;;5007035;28;20468;-77
2023/10/19 04:23:05;;;;;;;1.50;1.00;;;13.40;98.20;;;;;;5001209;28;20476;-77
2023/10/19 04:25:32;;;;;;;1.53;1.10;;;13.40;98.20;;;;;;5007354;28;20551;-77
2023/10/19 04:28:00;;;;;;;1.50;1.00;;;13.40;98.20;;;;;;5001053;28;20551;-77
2023/10/19 04:30:27;;;;;;;1.50;1.00;;;13.40;98.20;;;;;;5008234;28;20959;-77
2023/10/19 04:32:55;;;;;;;1.53;1.00;;;13.50;98.20;;;;;;5002521;28;20473;-77
2023/10/19 04:35:22;;;;;;;1.50;1.00;;;13.50;98.20;;;;;;5007845;28;20464;-77
2023/10/19 04:37:50;;;;;;;1.50;1.00;;;13.50;98.20;;;;;;5001107;28;20476;-77
2023/10/19 04:40:18;;;;;;;1.50;1.00;;;13.50;98.20;;;;;;5004161;28;20471;-77
2023/10/19 04:42:46;;;;;;;1.50;1.00;;;13.50;98.20;;;;;;5000803;28;21164;-77
2023/10/19 04:45:13;;;;;;;1.50;1.00;;;13.60;98.20;;;;;;5001719;28;20494;-77
2023/10/19 04:47:40;;;;;;;2.30;2.10;;;13.60;98.20;;;;;;4998150;28;20501;-78
2023/10/19 04:50:10;;;;;;;1.50;0.90;;;13.60;98.20;;;;;;5003240;28;20467;-78
2023/10/19 04:52:37;;;;;;;1.60;1.30;;;13.60;98.20;;;;;;5005667;28;20487;-79
2023/10/19 04:55:05;;;;;;;1.50;1.03;;;13.60;98.20;;;;;;5003044;28;20554;-78
2023/10/19 04:57:33;;;;;;;1.50;1.10;;;13.60;98.20;;;;;;5004158;28;20479;-77
2023/10/19 05:00:00;;;;;;;1.50;1.00;;;13.60;98.20;;;;;;5009978;28;20940;-78
2023/10/19 05:02:27;;;;;;;1.50;1.10;;;13.60;98.20;;;;;;5008835;28;20854;-78
2023/10/19 05:04:54;;;;;;;1.50;1.00;;;13.60;98.20;;;;;;5008020;28;20897;-77
2023/10/19 05:07:21;;;;;;;1.50;1.00;;;13.70;98.20;;;;;;5010346;28;20627;-77
2023/10/19 05:09:48;;;;;;;1.50;1.00;;;13.70;98.20;;;;;;5015632;28;21048;-78
2023/10/19 05:12:15;;;;;;;1.70;1.20;;;13.70;98.20;;;;;;5011220;28;20883;-78
2023/10/19 05:14:44;;;;;;;1.50;1.10;;;13.70;98.20;;;;;;5013139;28;20490;-78
2023/10/19 05:17:12;;;;;;;1.50;1.00;;;13.80;98.20;;;;;;5011446;28;20503;-78
2023/10/19 05:19:40;;;;;;;1.50;1.00;;;13.80;98.20;;;;;;5013490;28;20499;-78
2023/10/19 05:22:08;;;;;;;1.50;1.00;;;13.80;98.20;;;;;;4999041;28;20569;-77
2023/10/19 05:24:35;;;;;;;1.50;0.97;;;13.80;98.20;;;;;;5012356;28;20645;-78
2023/10/19 05:27:03;;;;;;;1.50;1.00;;;13.80;98.20;;;;;;5007403;28;20552;-77
2023/10/19 05:29:32;;;;;;;1.50;1.10;;;13.80;98.20;;;;;;5014375;28;20455;-78
2023/10/19 05:32:02;;;;;;;1.50;1.00;;;13.80;98.20;;;;;;5007098;28;20529;-78
2023/10/19 05:34:31;;;;;;;3.37;1.60;;;13.80;98.20;;;;;;5014842;28;20555;-78
2023/10/19 05:37:01;;;;;;;1.50;1.00;;;13.80;98.20;;;;;;5005326;28;20559;-77
2023/10/19 05:39:30;;;;;;;1.50;0.97;;;13.80;98.20;;;;;;5008212;28;20555;-78
2023/10/19 05:41:59;;;;;;;1.50;1.00;;;13.80;98.20;;;;;;5007693;28;20579;-77
2023/10/19 05:44:26;;;;;;;1.53;1.10;;;13.80;98.20;;;;;;5012042;28;20523;-78
2023/10/19 05:46:54;;;;;;;1.50;0.90;;;13.80;98.20;;;;;;5002999;28;20498;-77
2023/10/19 05:49:23;;;;;;;1.50;1.10;;;13.80;98.20;;;;;;5014649;28;20460;-77
2023/10/19 05:51:50;;;;;;;1.50;1.00;;;13.80;98.20;;;;;;5007888;28;21303;-75
2023/10/19 05:54:18;;;;;;;1.50;0.90;;;13.80;98.20;;;;;;5013176;28;20483;-78
2023/10/19 05:56:45;;;;;;;1.50;0.90;;;13.80;98.20;;;;;;5003329;28;20472;-78
2023/10/19 05:59:13;;;;;;;1.50;1.00;;;13.80;98.20;;;;;;5016196;28;20478;-78
2023/10/19 06:01:41;;;;;;;1.50;1.00;;;13.80;98.20;;;;;;5001185;28;20550;-78
2023/10/19 06:04:07;;;;;;;1.50;1.00;;;13.90;98.20;;;;;;5018225;28;20498;-76
2023/10/19 06:06:37;;;;;;;1.50;1.00;;;13.90;98.20;;;;;;4999115;28;20467;-78
2023/10/19 06:09:04;;;;;;;1.50;1.00;;;13.90;98.20;;;;;;5017898;28;20464;-78
2023/10/19 06:11:32;;;;;;;2.90;2.60;;;13.90;98.20;;;;;;5002683;28;21062;-77
2023/10/19 06:13:59;;;;;;;1.50;0.90;;;13.90;98.20;;;;;;5014956;28;20483;-78
2023/10/19 06:16:27;;;;;;;1.50;1.00;;;13.90;98.20;;;;;;4996712;28;20488;-76
2023/10/19 06:18:55;;;;;;;1.50;1.00;;;13.90;98.20;;;;;;5018402;28;20951;-78
2023/10/19 06:21:23;;;;;;;1.50;1.00;;;13.90;98.20;;;;;;5001984;28;20474;-77
2023/10/19 06:23:53;;;;;;;1.50;1.00;;;13.90;98.20;;;;;;5017485;28;20487;-76
2023/10/19 06:26:20;;;;;;;1.50;1.00;;;13.90;98.20;;;;;;4997891;28;20475;-76
2023/10/19 06:28:46;;;;;;;1.50;1.00;;;13.90;98.20;;;;;;5016542;28;20474;-78
2023/10/19 06:31:14;;;;;;;1.50;1.03;;;14.00;98.20;;;;;;4999421;28;20486;-78
2023/10/19 06:33:42;;;;;;;1.50;1.00;;;13.90;98.20;;;;;;5017264;28;20927;-78
2023/10/19 06:36:09;;;;;;;1.50;1.03;;;14.00;98.20;;;;;;5000269;28;20908;-77
2023/10/19 06:38:36;;;;;;;1.50;1.10;;;14.00;98.20;;;;;;5015928;28;20467;-77
2023/10/19 06:41:11;;;;;;;1.50;1.00;;;14.00;98.20;;;;;;4997861;28;20499;-77
2023/10/19 06:43:38;;;;;;;1.50;1.00;;;14.00;98.20;;;;;;5015346;28;20598;-74
2023/10/19 06:48:35;;;;;;;1.50;1.00;;;14.00;98.20;;;;;;5018642;28;20498;-76
2023/10/19 06:51:02;;;;;;;1.50;1.00;;;14.00;98.20;;;;;;5010319;28;20466;-77
2023/10/19 06:53:29;;;;;;;1.50;1.00;;;14.00;98.20;;;;;;5020838;28;20487;-76
2023/10/19 06:55:56;;;;;;;1.50;1.07;;;14.00;98.20;;;;;;5016347;28;20532;-76
2023/10/19 06:58:26;;;;;;;1.50;1.00;;;14.00;98.20;;;;;;5039767;28;20490;-77
2023/10/19 07:00:59;;;;;;;1.50;1.00;;;14.00;98.20;;;;;;5013784;28;20507;-77
2023/10/19 07:03:28;;;;;;;1.50;1.00;;;14.10;98.20;;;;;;5024294;22;20551;-79
2023/10/19 07:05:56;;;;;;;1.50;1.00;;;14.10;98.20;;;;;;4978905;28;20489;-81
2023/10/19 07:08:23;;;;;;;1.50;1.00;;;14.10;98.20;;;;;;5007913;28;20500;-78
2023/10/19 07:10:50;;;;;;;1.50;1.00;;;14.10;98.20;;;;;;4983416;28;20555;-77
2023/10/19 07:13:17;;;;;;;1.50;1.00;;;14.20;98.20;;;;;;5002827;28;20477;-78
2023/10/19 07:15:48;;;;;;;1.50;1.00;;;14.20;98.20;;;;;;4986193;28;20560;-81
2023/10/19 07:18:16;;;;;;;1.50;1.00;;;14.20;98.20;;;;;;4975112;28;20572;-78
2023/10/19 07:20:43;;;;;;;1.50;1.00;;;14.20;98.20;;;;;;4989099;28;21035;-79
2023/10/19 07:23:19;;;;;;;1.60;1.23;;;14.30;98.20;;;;;;4990710;28;20489;-80
2023/10/19 07:25:47;;;;;;;1.50;1.00;;;14.30;98.20;;;;;;4980213;28;20494;-79
2023/10/19 07:28:15;;;;;;;1.50;1.00;;;14.30;98.20;;;;;;4986540;28;20637;-80
2023/10/19 07:30:43;;;;;;;1.50;1.00;;;14.30;98.20;;;;;;4986447;28;20470;-81
2023/10/19 07:33:16;;;;;;;3.67;3.37;;;14.40;98.20;;;;;;4991694;28;20972;-80
2023/10/19 07:35:46;;;;;;;1.50;1.00;;;14.40;98.20;;;;;;4998990;28;22205;-79
2023/10/19 07:38:14;;;;;;;1.50;1.00;;;14.40;98.20;;;;;;4984382;28;20469;-81
2023/10/19 07:40:41;;;;;;;1.50;1.00;;;14.40;98.20;;;;;;4989748;28;20840;-80
2023/10/19 07:43:08;;;;;;;1.50;0.90;;;14.50;98.20;;;;;;4993410;28;20509;-81
2023/10/19 07:45:36;;;;;;;2.43;2.20;;;14.50;98.20;;;;;;4985701;28;20502;-78
2023/10/19 07:48:07;;;;;;;1.50;1.00;;;14.60;98.20;;;;;;4990340;28;20499;-77
2023/10/19 07:50:36;;;;;;;1.50;0.90;;;14.60;98.20;;;;;;4988873;28;20552;-78
2023/10/19 07:53:03;;;;;;;1.57;1.00;;;14.70;98.20;;;;;;4996719;28;20481;-77
2023/10/19 07:55:31;;;;;;;1.50;0.90;;;14.70;98.20;;;;;;4987673;28;20457;-77
2023/10/19 07:58:00;;;;;;;1.50;1.00;;;14.80;98.20;;;;;;4977629;28;20476;-77
2023/10/19 08:00:29;;;;;;;1.50;0.90;;;14.80;98.20;;;;;;4979077;28;20468;-77
2023/10/19 08:02:56;;;;;;;1.50;1.00;;;14.80;98.20;;;;;;4992409;28;20494;-78
2023/10/19 08:05:23;;;;;;;1.50;1.00;;;14.90;98.20;;;;;;4990496;28;20484;-77
2023/10/19 08:07:51;;;;;;;1.50;1.00;;;14.90;98.20;;;;;;4982497;28;20492;-77
2023/10/19 08:10:19;;;;;;;2.13;1.40;;;14.90;98.20;;;;;;4983853;28;20465;-77
2023/10/19 08:12:47;;;;;;;1.57;1.10;;;15.00;98.20;;;;;;4979146;28;20866;-76
2023/10/19 08:15:16;;;;;;;1.50;1.00;;;15.10;98.20;;;;;;4975724;28;20456;-77
2023/10/19 08:17:44;;;;;;;1.50;1.00;;;15.20;98.20;;;;;;4987253;28;20496;-77
2023/10/19 08:20:17;;;;;;;2.30;1.83;;;15.30;98.20;;;;;;4982330;28;20856;-77
2023/10/19 08:22:46;;;;;;;1.50;1.00;;;15.30;98.20;;;;;;4980911;28;20493;-77
2023/10/19 08:25:15;;;;;;;1.50;1.00;;;15.40;98.20;;;;;;4983125;28;20501;-76
2023/10/19 08:27:44;;;;;;;1.50;0.90;;;15.40;98.20;;;;;;4982772;28;20492;-77
2023/10/19 08:30:12;;;;;;;1.50;0.90;;;15.40;98.20;;;;;;4988830;28;20538;-77
2023/10/19 08:32:39;;;;;;;1.50;1.00;;;15.50;98.20;;;;;;4987356;28;20483;-77
2023/10/19 08:35:07;;;;;;;1.53;1.00;;;15.50;98.20;;;;;;4982478;28;20972;-77
2023/10/19 08:37:34;;;;;;;1.50;0.90;;;15.60;98.20;;;;;;4987939;28;20479;-77
2023/10/19 08:40:01;;;;;;;1.50;0.93;;;15.70;98.20;;;;;;4988713;28;20553;-77
2023/10/19 08:42:30;;;;;;;1.50;0.90;;;15.70;98.20;;;;;;4982040;28;20635;-77
2023/10/19 08:44:59;;;;;;;1.50;1.00;;;15.80;98.20;;;;;;4993906;28;21008;-77
2023/10/19 08:47:26;;;;;;;1.53;1.00;;;15.80;98.20;;;;;;4995360;28;20508;-77
2023/10/19 08:49:53;;;;;;;1.50;0.90;;;15.90;98.20;;;;;;4989420;28;20488;-77
2023/10/19 08:52:23;;;;;;;1.50;0.90;;;15.90;98.20;;;;;;4993498;28;20489;-78
2023/10/19 08:54:50;;;;;;;1.50;1.00;;;16.00;98.20;;;;;;4989909;28;20464;-77
2023/10/19 08:57:18;;;;;;;1.50;1.00;;;16.10;98.20;;;;;;4992725;28;20482;-77
2023/10/19 08:59:48;;;;;;;1.60;1.27;;;16.30;98.20;;;;;;4993555;28;20491;-77
2023/10/19 09:02:16;;;;;;;1.50;0.90;;;16.50;98.20;;;;;;4980798;28;20549;-77
2023/10/19 09:04:43;;;;;;;1.50;1.00;;;16.80;98.20;;;;;;4989726;28;20539;-77
2023/10/19 09:07:11;;;;;;;1.50;0.90;;;17.00;98.20;;;;;;4992160;28;20480;-77
2023/10/19 09:09:39;;;;;;;1.50;0.90;;;17.30;98.20;;;;;;4991647;28;20459;-77
2023/10/19 09:12:09;;;;;;;1.53;0.90;;;17.60;98.20;;;;;;4979949;28;20516;-77
2023/10/19 09:14:41;;;;;;;1.53;1.00;;;17.90;98.20;;;;;;4996628;28;20468;-78
2023/10/19 09:17:10;;;;;;;1.50;0.90;;;18.00;98.20;;;;;;4976988;28;20488;-78
2023/10/19 09:19:39;;;;;;;1.50;0.90;;;18.20;98.20;;;;;;4993068;28;20488;-76
2023/10/19 09:22:07;;;;;;;1.53;0.97;;;18.30;98.20;;;;;;4983178;28;20511;-77
2023/10/19 09:24:35;;;;;;;1.50;0.90;;;18.40;98.20;;;;;;4993458;28;20905;-78
2023/10/19 09:27:03;;;;;;;1.50;1.00;;;18.50;98.20;;;;;;4992844;28;20490;-78
2023/10/19 09:29:31;;;;;;;1.53;0.90;;;18.70;98.20;;;;;;4992248;28;20542;-77
2023/10/19 09:32:02;;;;;;;1.50;0.90;;;18.70;98.20;;;;;;4986194;28;20487;-78
2023/10/19 09:34:32;;;;;;;1.50;0.90;;;18.70;98.20;;;;;;4993892;28;20457;-77
2023/10/19 09:37:03;;;;;;;1.60;1.10;;;18.70;98.20;;;;;;4981463;28;20472;-78
2023/10/19 09:39:34;;;;;;;1.50;0.90;;;18.60;98.20;;;;;;4988463;28;20869;-76
2023/10/19 09:42:05;;;;;;;1.50;0.90;;;18.60;98.20;;;;;;4988876;28;20484;-77
2023/10/19 09:44:39;;;;;;;1.50;0.90;;;18.70;98.20;;;;;;4992604;28;20469;-77
2023/10/19 09:47:12;;;;;;;1.50;0.90;;;18.90;98.20;;;;;;4983220;28;20488;-77
2023/10/19 09:49:42;;;;;;;1.50;0.90;;;19.10;98.20;;;;;;4996153;28;20468;-77
2023/10/19 09:52:10;;;;;;;1.50;0.90;;;19.30;98.20;;;;;;4985542;28;21420;-78
2023/10/19 09:54:51;;;;;;;1.53;0.90;;;19.40;98.20;;;;;;4989361;28;20970;-78
2023/10/19 09:57:24;;;;;;;1.50;0.90;;;19.50;98.20;;;;;;4987557;28;21033;-78
2023/10/19 09:59:57;;;;;;;1.60;1.00;;;19.70;98.20;;;;;;4991738;28;20503;-77
2023/10/19 10:02:25;;;;;;;1.50;0.90;;;19.90;98.20;;;;;;4990785;28;20676;-78
2023/10/19 10:04:54;;;;;;;1.50;0.93;;;20.00;98.20;;;;;;4989083;28;20471;-80
2023/10/19 10:07:20;;;;;;;1.57;1.00;;;20.00;98.20;;;;;;4991311;28;20491;-76
2023/10/19 10:09:49;;;;;;;1.50;0.90;;;19.90;98.20;;;;;;4994017;28;20472;-77
2023/10/19 10:12:21;;;;;;;1.50;0.90;;;19.80;98.20;;;;;;4992780;28;20484;-78
2023/10/19 10:14:57;;;;;;;1.50;0.90;;;19.70;98.20;;;;;;4991045;28;20465;-78
2023/10/19 10:17:25;;;;;;;1.50;0.90;;;19.60;98.20;;;;;;4997417;28;20484;-77
2023/10/19 10:19:57;;;;;;;1.50;0.90;;;19.60;98.20;;;;;;4992251;28;20459;-78
2023/10/19 10:22:24;;;;;;;1.50;0.90;;;19.60;98.20;;;;;;4994356;28;20710;-77
2023/10/19 10:24:56;;;;;;;1.50;0.90;;;19.50;98.20;;;;;;4997015;28;20986;-78
2023/10/19 10:27:23;;;;;;;1.50;0.90;;;19.50;98.20;;;;;;4986421;28;20926;-77
2023/10/19 10:29:59;;;;;;;1.50;0.90;;;19.60;98.20;;;;;;4987535;28;20554;-78
2023/10/19 10:32:47;;;;;;;1.50;0.90;;;19.70;98.20;;;;;;4993265;28;20993;-77
2023/10/19 10:35:47;;;;;;;1.50;0.90;;;19.70;98.20;;;;;;4993391;28;20465;-78
2023/10/19 10:38:16;;;;;;;1.50;0.90;;;19.80;98.20;;;;;;4978315;28;20908;-77
2023/10/19 10:40:47;;;;;;;1.50;0.90;;;19.80;98.20;;;;;;4986586;28;20520;-78
2023/10/19 10:43:15;;;;;;;1.50;0.90;;;19.70;98.20;;;;;;4980676;28;20568;-78
2023/10/19 10:45:42;;;;;;;1.50;0.90;;;19.80;98.20;;;;;;4997033;28;20551;-78
2023/10/19 10:48:13;;;;;;;1.50;0.90;;;19.80;98.20;;;;;;4986704;28;21042;-77
2023/10/19 10:50:41;;;;;;;1.50;0.90;;;19.90;98.20;;;;;;4988930;28;20475;-77
2023/10/19 10:53:08;;;;;;;1.50;0.90;;;19.90;98.20;;;;;;4992775;28;20993;-77
2023/10/19 10:55:36;;;;;;;1.50;0.90;;;19.90;98.20;;;;;;4993042;28;20717;-79
2023/10/19 10:58:03;;;;;;;1.50;0.90;;;19.80;98.20;;;;;;4981380;28;20484;-77
2023/10/19 11:00:32;;;;;;;1.50;0.90;;;19.80;98.20;;;;;;4987487;28;20474;-76
2023/10/19 11:03:06;;;;;;;1.50;0.90;;;19.80;98.20;;;;;;4996651;28;20691;-77
2023/10/19 11:05:35;;;;;;;1.50;1.00;;;19.70;98.20;;;;;;4982521;28;20690;-78
2023/10/19 11:08:08;;;;;;;1.50;0.90;;;19.80;98.20;;;;;;4988825;28;20490;-77
2023/10/19 11:10:37;;;;;;;1.50;0.90;;;19.80;98.20;;;;;;4990243;28;20851;-76
2023/10/19 11:13:04;;;;;;;1.50;0.90;;;19.80;98.20;;;;;;4991629;28;20481;-77
2023/10/19 11:15:31;;;;;;;1.50;0.90;;;19.80;98.20;;;;;;4981302;28;20488;-77
2023/10/19 11:17:58;;;;;;;1.50;0.90;;;19.80;98.20;;;;;;4983443;28;20483;-77
2023/10/19 11:20:27;;;;;;;1.50;0.90;;;19.80;98.20;;;;;;4987397;28;20484;-77
2023/10/19 11:22:55;;;;;;;1.50;0.90;;;19.80;98.20;;;;;;4988776;28;20482;-77
2023/10/19 11:25:24;;;;;;;1.50;0.90;;;19.80;98.20;;;;;;4988562;28;20579;-80
2023/10/19 11:27:52;;;;;;;1.50;0.90;;;19.80;98.20;;;;;;4992976;28;20521;-77
2023/10/19 11:30:26;;;;;;;1.50;0.90;;;19.70;98.20;;;;;;4987158;28;20470;-77
2023/10/19 11:32:56;;;;;;;1.47;0.90;;;19.70;98.20;;;;;;4987359;28;20490;-78
2023/10/19 11:35:24;;;;;;;1.47;0.90;;;19.70;98.20;;;;;;4985763;28;20781;-80
2023/10/19 11:37:53;;;;;;;1.50;1.00;;;19.60;98.20;;;;;;4996032;28;21033;-79
2023/10/19 11:40:22;;;;;;;1.50;0.90;;;19.60;98.20;;;;;;4984990;28;20469;-78
2023/10/19 11:42:48;;;;;;;1.50;0.90;;;19.50;98.20;;;;;;4990218;28;20539;-80
2023/10/19 11:45:17;;;;;;;1.70;1.30;;;19.50;98.20;;;;;;4986566;28;20487;-76
2023/10/19 11:47:44;;;;;;;1.50;0.90;;;19.50;98.20;;;;;;4976093;28;20487;-79
2023/10/19 11:50:14;;;;;;;2.03;1.83;;;19.50;98.20;;;;;;4979876;28;20466;-80
2023/10/19 11:52:42;;;;;;;1.50;0.90;;;19.40;98.20;;;;;;4988439;28;20490;-78
2023/10/19 11:55:09;;;;;;;1.50;0.90;;;19.40;98.20;;;;;;4980997;28;20474;-77
2023/10/19 11:57:36;;;;;;;1.50;0.90;;;19.40;98.20;;;;;;4987911;28;20570;-77
2023/10/19 12:00:08;;;;;;;1.50;0.90;;;19.40;98.20;;;;;;4987140;28;20468;-77
2023/10/19 12:02:38;;;;;;;1.50;1.00;;;19.40;98.20;;;;;;4988676;28;20496;-76
2023/10/19 12:05:09;;;;;;;1.50;0.90;;;19.50;98.20;;;;;;4982529;28;20466;-76
2023/10/19 12:07:36;;;;;;;1.50;0.90;;;19.50;98.20;;;;;;4988279;28;20487;-77
2023/10/19 12:10:04;;;;;;;1.47;0.90;;;19.50;98.20;;;;;;4988790;28;20557;-77
2023/10/19 12:12:31;;;;;;;1.50;0.90;;;19.40;98.20;;;;;;4992819;28;20502;-77
2023/10/19 12:14:58;;;;;;;1.50;0.90;;;19.40;98.20;;;;;;4982760;28;20470;-76
2023/10/19 12:17:26;;;;;;;1.50;0.90;;;19.50;98.20;;;;;;4986057;28;20519;-77
2023/10/19 12:19:55;;;;;;;1.50;0.90;;;19.50;98.20;;;;;;4981843;28;20838;-76
2023/10/19 12:22:24;;;;;;;1.47;0.90;;;19.50;98.20;;;;;;4984822;28;20520;-78
2023/10/19 12:24:51;;;;;;;1.40;0.90;;;19.50;98.20;;;;;;4987322;28;20465;-77
2023/10/19 12:27:18;;;;;;;1.50;0.90;;;19.40;98.20;;;;;;4987352;28;20480;-78
2023/10/19 12:29:45;;;;;;;1.50;0.90;;;19.40;98.20;;;;;;4989734;28;20845;-78
2023/10/19 12:32:13;;;;;;;1.50;0.90;;;19.30;98.20;;;;;;4981689;28;20491;-79
2023/10/19 12:34:41;;;;;;;1.50;0.90;;;19.20;98.20;;;;;;4993385;28;20530;-78
2023/10/19 12:37:11;;;;;;;1.50;0.90;;;19.20;98.20;;;;;;4988598;28;20571;-76
2023/10/19 12:39:43;;;;;;;1.50;0.90;;;19.10;98.20;;;;;;4993038;28;20539;-76
2023/10/19 12:42:10;;;;;;;1.50;0.90;;;19.10;98.20;;;;;;4989698;28;20508;-76
2023/10/19 12:44:40;;;;;;;1.50;0.90;;;19.00;98.20;;;;;;4992101;28;20973;-77
2023/10/19 12:47:10;;;;;;;1.50;0.90;;;19.00;98.20;;;;;;4991819;28;21004;-79
2023/10/19 12:49:37;;;;;;;1.50;0.90;;;18.90;98.20;;;;;;4995477;28;20808;-80
2023/10/19 12:52:04;;;;;;;1.50;0.90;;;18.80;98.20;;;;;;4989663;28;20479;-76
2023/10/19 12:54:32;;;;;;;1.50;0.90;;;18.80;98.20;;;;;;4990873;28;20472;-78
2023/10/19 12:56:59;;;;;;;1.50;0.90;;;18.80;98.20;;;;;;4974238;28;21031;-77
2023/10/19 12:59:26;;;;;;;1.50;0.90;;;18.80;98.20;;;;;;4988508;28;20470;-76
2023/10/19 13:01:57;;;;;;;1.50;1.00;;;18.80;98.20;;;;;;4975112;28;20479;-77